Time;durP1;ratioP1;P1;durP2;ratioP2;P2;SDS_P1;SDS_P2;PMS_P1;PMS_P2;Temp;Humidity;BMP_temperature;BMP_pressure;BME280_temperature;BME280_humidity;BME280_pressure;Samples;Min_cycle;Max_cycle;Signal;HPM_P1;HPM_P2
2022/09/04 00:01:01;;;;;;;;;19.33;17.00;;;;;21.58;100.00;101054.66;5042815;28;45420;-67
2022/09/04 00:03:55;;;;;;;;;21.00;21.00;;;;;21.54;100.00;101056.53;5037393;28;45296;-68
2022/09/04 00:06:28;;;;;;;;;16.00;16.00;;;;;21.53;100.00;101048.53;5019732;28;45388;-68
2022/09/04 00:09:06;;;;;;;;;17.67;17.67;;;;;21.50;100.00;101054.88;5049613;28;45441;-68
2022/09/04 00:11:40;;;;;;;;;13.33;12.33;;;;;21.49;100.00;101055.81;5031293;28;46473;-68
2022/09/04 00:14:12;;;;;;;;;13.33;13.33;;;;;21.49;100.00;101058.50;5037012;28;45384;-68
2022/09/04 00:16:39;;;;;;;;;10.00;10.00;;;;;21.53;100.00;101061.97;5037558;28;45319;-69
2022/09/04 00:19:35;;;;;;;;;13.67;12.00;;;;;21.56;100.00;101064.56;5037113;28;45745;-67
2022/09/04 00:22:19;;;;;;;;;15.33;12.33;;;;;21.58;100.00;101062.72;5047876;28;46221;-68
2022/09/04 00:24:51;;;;;;;;;13.67;12.67;;;;;21.63;100.00;101066.16;5028232;28;45625;-67
2022/09/04 00:27:20;;;;;;;;;12.33;12.33;;;;;21.62;100.00;101075.09;5054765;28;45541;-67
2022/09/04 00:29:52;;;;;;;;;15.00;11.00;;;;;21.67;100.00;101073.16;5036080;28;45504;-67
2022/09/04 00:32:37;;;;;;;;;14.67;14.00;;;;;21.65;100.00;101070.53;5036956;28;47379;-68
2022/09/04 00:35:09;;;;;;;;;14.67;12.67;;;;;21.67;100.00;101074.03;5021671;28;45407;-69
2022/09/04 00:37:40;;;;;;;;;12.33;11.00;;;;;21.64;100.00;101067.91;5049752;28;45379;-67
2022/09/04 00:40:18;;;;;;;;;12.00;12.00;;;;;21.64;100.00;101073.28;5019136;28;45538;-67
2022/09/04 00:43:05;;;;;;;;;14.33;11.67;;;;;21.67;100.00;101078.53;5023794;28;46645;-68
2022/09/04 00:46:04;;;;;;;;;10.67;10.00;;;;;21.64;100.00;101078.66;5051912;28;45445;-68
2022/09/04 00:48:57;;;;;;;;;11.00;10.33;;;;;21.67;100.00;101083.91;5048948;28;45509;-67
2022/09/04 00:51:32;;;;;;;;;10.00;10.00;;;;;21.64;100.00;101078.66;5042185;28;45383;-67
2022/09/04 00:54:34;;;;;;;;;9.67;9.67;;;;;21.67;100.00;101087.47;5018760;28;46664;-68
2022/09/04 00:57:17;;;;;;;;;12.33;9.00;;;;;21.69;100.00;101087.44;4980877;28;45401;-69
2022/09/04 00:59:51;;;;;;;;;11.33;11.33;;;;;21.68;100.00;101085.69;5055529;28;45522;-68
2022/09/04 01:02:28;;;;;;;;;10.33;10.00;;;;;21.68;100.00;101089.25;5057070;28;45405;-69
2022/09/04 01:05:08;;;;;;;;;13.67;9.00;;;;;21.69;100.00;101095.50;5056442;28;46498;-68
2022/09/04 01:07:34;;;;;;;;;11.67;10.33;;;;;21.70;100.00;101090.06;5056575;28;45382;-68
2022/09/04 01:10:07;;;;;;;;;13.33;10.00;;;;;21.70;100.00;101097.25;5056724;28;45454;-68
2022/09/04 01:12:48;;;;;;;;;8.33;8.33;;;;;21.68;100.00;101091.06;5038950;28;45431;-67
2022/09/04 01:15:29;;;;;;;;;10.67;9.67;;;;;21.66;100.00;101088.41;5038356;28;47078;-68
2022/09/04 01:17:57;;;;;;;;;11.67;10.00;;;;;21.67;100.00;101103.59;5030748;28;45517;-68
2022/09/04 01:20:36;;;;;;;;;9.00;9.00;;;;;21.67;100.00;101106.28;5037957;28;45529;-68
2022/09/04 01:23:15;;;;;;;;;8.67;8.00;;;;;21.66;100.00;101107.22;5036417;28;45472;-68
2022/09/04 01:25:59;;;;;;;;;10.33;7.67;;;;;21.63;100.00;101109.16;5020969;28;47413;-68
2022/09/04 01:28:27;;;;;;;;;11.00;10.00;;;;;21.63;100.00;101110.03;5042018;28;45269;-69
2022/09/04 01:31:31;;;;;;;;;6.67;6.67;;;;;21.63;100.00;101117.22;5031961;28;45599;-68
2022/09/04 01:34:28;;;;;;;;;9.00;7.67;;;;;21.59;99.87;101120.91;5043240;28;45522;-68
2022/09/04 01:37:21;;;;;;;;;6.67;6.67;;;;;21.56;98.85;101121.84;5057725;28;46698;-68
2022/09/04 01:40:17;;;;;;;;;10.67;6.67;;;;;21.54;97.92;101123.72;5021891;28;45562;-68
2022/09/04 01:42:50;;;;;;;;;5.00;5.00;;;;;21.52;97.70;101117.53;5043642;28;45207;-68
2022/09/04 01:45:32;;;;;;;;;6.67;5.33;;;;;21.51;97.10;101123.78;5024563;28;45414;-67
2022/09/04 01:48:02;;;;;;;;;6.00;5.00;;;;;21.51;96.17;101117.56;5039372;28;47571;-68
2022/09/04 01:50:31;;;;;;;;;5.00;5.00;;;;;21.48;94.64;101126.59;5048473;28;45463;-69
2022/09/04 01:53:06;;;;;;;;;9.33;6.00;;;;;21.47;94.14;101123.97;5022092;28;45343;-69
2022/09/04 01:55:36;;;;;;;;;7.00;5.33;;;;;21.42;94.07;101127.66;5039876;28;45338;-69
2022/09/04 01:58:05;;;;;;;;;7.67;6.00;;;;;21.41;94.07;101131.28;5025546;28;47274;-69
2022/09/04 02:00:48;;;;;;;;;4.67;4.67;;;;;21.40;93.47;101131.28;5049667;28;45364;-68
2022/09/04 02:03:26;;;;;;;;;9.33;5.00;;;;;21.34;93.42;101118.94;5030157;28;45374;-67
2022/09/04 02:06:03;;;;;;;;;6.00;6.00;;;;;21.35;93.72;101134.09;5059429;28;45214;-69
2022/09/04 02:09:09;;;;;;;;;4.00;4.00;;;;;21.33;93.07;101135.09;5059609;28;47510;-68
2022/09/04 02:11:35;;;;;;;;;5.33;5.33;;;;;21.31;92.96;101137.84;5051082;28;45252;-67
2022/09/04 02:14:26;;;;;;;;;6.33;6.33;;;;;21.25;93.20;101129.00;5021464;28;45347;-67
2022/09/04 02:17:09;;;;;;;;;5.33;5.33;;;;;21.25;93.45;101139.75;5021788;28;45667;-66
2022/09/04 02:20:03;;;;;;;;;4.67;4.67;;;;;21.19;92.92;101135.44;5046672;28;46328;-67
2022/09/04 02:22:59;;;;;;;;;5.67;5.67;;;;;21.19;94.07;101144.38;5021191;28;45331;-69
2022/09/04 02:25:24;;;;;;;;;7.00;6.00;;;;;21.18;93.46;101153.34;5039382;28;45477;-68
2022/09/04 02:27:53;;;;;;;;;10.67;6.67;;;;;21.17;93.76;101161.47;5050787;28;45272;-67
2022/09/04 02:30:19;;;;;;;;;6.67;6.67;;;;;21.12;93.68;101155.34;5051857;28;47446;-67
2022/09/04 02:33:07;;;;;;;;;8.33;6.00;;;;;21.15;93.87;101166.00;5040544;28;45581;-68
2022/09/04 02:35:38;;;;;;;;;7.00;5.33;;;;;21.12;93.23;101169.66;5037864;28;45276;-68
2022/09/04 02:38:28;;;;;;;;;6.67;5.67;;;;;21.11;93.53;101172.38;5047179;28;45311;-67
2022/09/04 02:40:59;;;;;;;;;5.00;5.00;;;;;21.07;93.24;101170.69;5058585;28;47442;-67
2022/09/04 02:44:01;;;;;;;;;6.33;5.33;;;;;21.03;93.30;101185.13;5058612;28;45466;-67
2022/09/04 02:46:35;;;;;;;;;6.00;6.00;;;;;21.00;93.73;101182.53;5058099;28;45232;-68
2022/09/04 02:49:12;;;;;;;;;6.00;6.00;;;;;20.97;93.46;101185.28;5032087;28;45572;-68
2022/09/04 02:52:00;;;;;;;;;5.00;5.00;;;;;20.92;94.15;101188.97;5020857;28;47349;-69
2022/09/04 02:54:57;;;;;;;;;7.00;5.67;;;;;20.89;93.99;101191.75;5057817;28;45388;-67
2022/09/04 02:57:26;;;;;;;;;6.00;6.00;;;;;20.85;94.40;101199.91;5058924;28;45278;-67
2022/09/04 03:00:12;;;;;;;;;8.67;5.67;;;;;20.78;94.18;101185.78;5053615;28;45651;-68
2022/09/04 03:02:45;;;;;;;;;5.33;5.33;;;;;20.73;94.48;101190.38;5021821;28;46603;-68
2022/09/04 03:05:18;;;;;;;;;6.00;6.00;;;;;20.65;95.15;101173.56;5031809;28;45265;-67
2022/09/04 03:08:12;;;;;;;;;5.67;5.67;;;;;20.65;93.76;101179.81;5020652;28;45381;-68
2022/09/04 03:10:45;;;;;;;;;4.67;4.67;;;;;20.63;94.05;101184.34;5020607;28;45496;-68
2022/09/04 03:13:18;;;;;;;;;5.67;5.00;;;;;20.63;93.22;101180.78;5020684;28;47542;-68
2022/09/04 03:16:04;;;;;;;;;7.00;7.00;;;;;20.63;93.38;101184.34;5038283;28;45467;-68
2022/09/04 03:19:04;;;;;;;;;4.33;3.33;;;;;20.66;93.73;101186.06;5043710;28;45466;-69
2022/09/04 03:21:38;;;;;;;;;7.00;5.33;;;;;20.65;93.42;101181.63;4962458;28;45560;-67
2022/09/04 03:24:09;;;;;;;;;6.00;6.00;;;;;20.63;93.46;101196.88;5042532;28;46409;-68
2022/09/04 03:26:38;;;;;;;;;6.00;5.00;;;;;20.61;93.54;101185.28;5030291;28;45419;-67
2022/09/04 03:29:16;;;;;;;;;7.00;4.33;;;;;20.60;93.39;101189.78;5040298;28;45288;-67
2022/09/04 03:32:06;;;;;;;;;4.00;4.00;;;;;20.55;93.87;101191.69;5049061;28;45268;-67
2022/09/04 03:34:36;;;;;;;;;5.00;5.00;;;;;20.52;93.32;101194.47;5030758;28;45604;-67
2022/09/04 03:37:58;;;;;;;;;5.00;5.00;;;;;20.51;93.68;101202.56;5053540;28;45320;-67
2022/09/04 03:40:48;;;;;;;;;5.00;5.00;;;;;20.46;94.18;101194.63;4976160;28;45380;-67
2022/09/04 03:43:23;;;;;;;;;5.33;4.00;;;;;20.44;93.64;101196.41;4986183;28;45492;-68
2022/09/04 03:46:13;;;;;;;;;5.33;5.33;;;;;20.41;94.29;101194.69;5029159;28;45834;-68
2022/09/04 03:48:38;;;;;;;;;5.00;5.00;;;;;20.38;93.82;101191.19;5038615;28;45452;-67
2022/09/04 03:51:23;;;;;;;;;6.00;6.00;;;;;20.35;94.31;101197.53;5037938;28;45517;-68
2022/09/04 03:53:56;;;;;;;;;6.00;6.00;;;;;20.35;93.67;101197.53;5040906;28;45585;-68
2022/09/04 03:56:36;;;;;;;;;5.00;5.00;;;;;20.34;94.02;101200.22;5057590;28;45557;-68
2022/09/04 03:59:07;;;;;;;;;7.00;4.00;;;;;20.31;94.37;101195.81;5056410;28;45249;-68
2022/09/04 04:01:44;;;;;;;;;5.00;5.00;;;;;20.29;93.94;101202.13;5020673;28;45606;-67
2022/09/04 04:04:47;;;;;;;;;4.00;4.00;;;;;20.28;94.56;101208.41;5037339;28;45712;-69
2022/09/04 04:07:20;;;;;;;;;7.67;4.67;;;;;20.28;94.29;101214.66;5036017;28;47510;-68
2022/09/04 04:10:12;;;;;;;;;7.67;6.33;;;;;20.30;93.41;101212.84;5039270;28;45339;-68
2022/09/04 04:12:57;;;;;;;;;7.67;4.00;;;;;20.32;93.27;101218.16;5057515;28;45332;-68
2022/09/04 04:15:51;;;;;;;;;5.67;5.67;;;;;20.30;93.35;101214.66;5057637;28;45507;-68
2022/09/04 04:18:42;;;;;;;;;4.67;4.67;;;;;20.32;93.28;101219.03;5055819;28;47749;-67
2022/09/04 04:21:35;;;;;;;;;4.33;4.33;;;;;20.28;92.85;101219.16;5056681;28;45176;-68
2022/09/04 04:24:19;;;;;;;;;8.00;5.00;;;;;20.26;93.50;101219.19;5056971;28;45351;-69
2022/09/04 04:26:57;;;;;;;;;6.33;5.67;;;;;20.22;93.59;101212.13;5057257;28;45546;-69
2022/09/04 04:29:40;;;;;;;;;5.67;4.00;;;;;20.17;93.80;101219.38;5027745;28;46211;-67
2022/09/04 04:32:17;;;;;;;;;6.00;5.00;;;;;20.12;93.91;101222.16;5053730;28;45505;-67
2022/09/04 04:34:45;;;;;;;;;6.67;5.00;;;;;20.08;93.83;101225.84;5037080;28;45507;-67
2022/09/04 04:37:29;;;;;;;;;5.00;5.00;;;;;20.03;93.99;101222.41;5036870;28;45684;-68
2022/09/04 04:39:57;;;;;;;;;7.33;6.33;;;;;20.00;94.12;101229.59;5019177;28;46577;-68
2022/09/04 04:42:30;;;;;;;;;5.00;5.00;;;;;19.94;94.56;101221.69;5019074;28;45562;-67
2022/09/04 04:48:06;;;;;;;;;7.00;5.33;;;;;19.86;95.60;101233.44;5049035;28;45543;-67
2022/09/04 04:50:46;;;;;;;;;6.67;5.00;;;;;19.81;95.59;101243.38;5048763;28;46443;-69
2022/09/04 04:53:30;;;;;;;;;9.00;6.00;;;;;19.77;95.81;101251.53;5036465;28;45432;-67
2022/09/04 04:55:59;;;;;;;;;5.33;5.33;;;;;19.73;96.19;101250.72;5025835;28;45321;-68
2022/09/04 04:59:19;;;;;;;;;5.67;5.67;;;;;19.73;96.04;101244.47;5056956;28;45295;-67
2022/09/04 05:01:49;;;;;;;;;8.00;7.00;;;;;19.71;96.27;101254.31;5032181;28;46970;-67
2022/09/04 05:04:34;;;;;;;;;5.00;5.00;;;;;19.72;96.20;101248.06;5038492;28;45356;-67
2022/09/04 05:07:33;;;;;;;;;10.33;6.67;;;;;19.75;97.11;101256.03;5056956;28;45400;-67
2022/09/04 05:10:07;;;;;;;;;6.33;6.33;;;;;19.78;96.78;101258.66;5041470;28;45498;-68
2022/09/04 05:12:58;;;;;;;;;8.00;7.33;;;;;19.79;97.38;101261.28;5057442;28;46557;-68
2022/09/04 05:15:42;;;;;;;;;8.00;6.33;;;;;19.80;97.79;101256.81;5050533;28;45346;-68
2022/09/04 05:18:25;;;;;;;;;6.67;5.67;;;;;19.79;97.75;101252.38;5050118;28;45546;-67
2022/09/04 05:21:07;;;;;;;;;7.67;6.67;;;;;19.77;98.40;101259.56;5053079;28;45179;-67
2022/09/04 05:23:38;;;;;;;;;7.67;7.67;;;;;19.79;98.63;101274.69;5041545;28;46419;-68
2022/09/04 05:26:11;;;;;;;;;8.67;7.67;;;;;19.79;98.25;101271.13;5059829;28;45486;-68
2022/09/04 05:28:47;;;;;;;;;6.00;6.00;;;;;19.82;98.57;101288.03;5026562;28;45565;-68
2022/09/04 05:31:18;;;;;;;;;6.00;6.00;;;;;19.86;99.35;101292.41;5040195;28;45496;-67
2022/09/04 05:33:50;;;;;;;;;7.67;7.00;;;;;19.89;99.44;101286.13;5021680;28;46702;-67
2022/09/04 05:36:31;;;;;;;;;7.67;6.67;;;;;19.94;99.79;101292.28;5049516;28;45394;-67
2022/09/04 05:39:17;;;;;;;;;7.00;7.00;;;;;19.95;99.81;101287.78;5042102;28;45299;-67
2022/09/04 05:42:00;;;;;;;;;7.33;7.33;;;;;20.03;100.00;101302.81;5042082;28;45451;-68
2022/09/04 05:44:43;;;;;;;;;8.00;8.00;;;;;20.05;100.00;101297.41;5041696;28;45718;-68
2022/09/04 05:47:38;;;;;;;;;7.33;6.00;;;;;20.08;100.00;101294.66;5037321;28;45224;-69
2022/09/04 05:50:16;;;;;;;;;7.33;6.67;;;;;20.10;100.00;101293.72;5045159;28;45365;-67
2022/09/04 05:52:47;;;;;;;;;5.00;5.00;;;;;20.16;100.00;101306.09;5038884;28;45513;-68
2022/09/04 05:55:24;;;;;;;;;8.00;6.33;;;;;20.18;100.00;101301.59;5059501;28;45802;-67
2022/09/04 05:57:55;;;;;;;;;7.67;7.67;;;;;20.19;100.00;101311.44;5059641;28;45353;-67
2022/09/04 06:00:21;;;;;;;;;6.33;6.33;;;;;20.21;100.00;101317.63;5058917;28;45308;-67
2022/09/04 06:03:17;;;;;;;;;7.33;7.00;;;;;20.25;100.00;101327.38;5032838;28;45421;-68
2022/09/04 06:06:21;;;;;;;;;6.00;5.67;;;;;20.30;100.00;101319.25;5021552;28;46751;-69
2022/09/04 06:09:18;;;;;;;;;6.00;6.00;;;;;20.33;100.00;101321.84;5038422;28;45436;-67
2022/09/04 06:12:05;;;;;;;;;7.67;7.67;;;;;20.37;100.00;101323.53;5055792;28;45525;-67
2022/09/04 06:14:57;;;;;;;;;6.67;6.67;;;;;20.38;100.00;101323.50;5059102;28;45319;-67
2022/09/04 06:17:47;;;;;;;;;7.67;6.33;;;;;20.37;100.00;101321.75;5031256;28;47402;-67
2022/09/04 06:20:32;;;;;;;;;8.00;6.00;;;;;20.38;100.00;101317.25;5046068;28;45508;-68
2022/09/04 06:23:30;;;;;;;;;12.67;8.00;;;;;20.42;100.00;101327.91;5025094;28;45502;-70
2022/09/04 06:26:19;;;;;;;;;6.00;6.00;;;;;20.47;100.00;101332.31;5025421;28;45585;-67
2022/09/04 06:28:47;;;;;;;;;7.00;7.00;;;;;20.54;100.00;101332.13;5020980;28;47204;-68
2022/09/04 06:31:19;;;;;;;;;7.00;7.00;;;;;20.60;100.00;101339.16;5025308;28;45350;-67
2022/09/04 06:34:03;;;;;;;;;7.33;7.33;;;;;20.61;100.00;101333.78;5059514;28;45169;-67
2022/09/04 06:36:45;;;;;;;;;6.00;6.00;;;;;20.65;100.00;101345.31;5053746;28;45224;-68
2022/09/04 06:39:32;;;;;;;;;10.33;7.00;;;;;20.64;100.00;101339.06;5026178;28;47306;-70
2022/09/04 06:42:14;;;;;;;;;8.67;7.00;;;;;20.65;100.00;101345.31;5054171;28;45301;-68
2022/09/04 06:44:52;;;;;;;;;10.00;7.33;;;;;20.62;100.00;101343.59;5036719;28;45328;-69
2022/09/04 06:47:35;;;;;;;;;8.67;7.00;;;;;20.72;100.00;101352.31;5041933;28;45472;-68
2022/09/04 06:50:15;;;;;;;;;8.00;5.67;;;;;20.74;100.00;101344.22;5043419;28;46747;-69
2022/09/04 06:52:59;;;;;;;;;7.67;6.00;;;;;20.79;100.00;101355.75;5050622;28;45343;-68
2022/09/04 06:55:33;;;;;;;;;6.33;6.33;;;;;20.76;100.00;101351.31;5038633;28;45206;-68
2022/09/04 06:58:17;;;;;;;;;6.67;6.00;;;;;20.82;99.74;101361.91;5032192;28;45556;-68
2022/09/04 07:00:52;;;;;;;;;7.33;7.33;;;;;20.85;100.00;101366.34;5054782;28;45927;-68
2022/09/04 07:03:17;;;;;;;;;7.67;7.67;;;;;20.90;99.90;101362.63;5052165;28;45367;-68
2022/09/04 07:06:04;;;;;;;;;7.33;7.33;;;;;20.93;99.25;101373.31;5053203;28;45360;-69
2022/09/04 07:08:58;;;;;;;;;8.00;7.00;;;;;20.95;98.71;101373.25;5033939;28;45523;-70
2022/09/04 07:11:48;;;;;;;;;7.00;7.00;;;;;20.97;98.73;101367.84;5039504;28;47795;-68
2022/09/04 07:14:45;;;;;;;;;8.00;8.00;;;;;21.00;98.75;101365.97;5054898;28;45300;-69
2022/09/04 07:17:32;;;;;;;;;10.00;8.00;;;;;21.03;99.25;101378.44;5039387;28;45427;-68
2022/09/04 07:20:07;;;;;;;;;8.00;8.00;;;;;21.06;98.23;101381.94;5035122;28;45431;-69
2022/09/04 07:22:46;;;;;;;;;12.00;10.33;;;;;21.07;97.70;101380.13;5044158;28;46309;-69
2022/09/04 07:25:25;;;;;;;;;7.67;7.67;;;;;21.08;98.05;101384.59;5033089;28;45577;-72
2022/09/04 07:28:13;;;;;;;;;7.00;7.00;;;;;21.05;99.55;101387.34;5046037;28;45540;-69
2022/09/04 07:30:50;;;;;;;;;10.33;7.33;;;;;21.07;98.65;101388.19;5034769;28;45746;-70
2022/09/04 07:33:44;;;;;;;;;7.33;7.33;;;;;21.08;98.98;101390.84;5048683;28;46616;-70
2022/09/04 07:36:17;;;;;;;;;8.67;7.33;;;;;21.07;99.09;101393.56;5044814;28;45617;-69
2022/09/04 07:38:52;;;;;;;;;10.33;8.00;;;;;21.06;98.62;101391.81;5031591;28;45442;-69
2022/09/04 07:41:31;;;;;;;;;8.33;6.33;;;;;21.09;98.62;101405.13;5031802;28;45383;-70
2022/09/04 07:44:34;;;;;;;;;8.00;6.67;;;;;21.07;97.04;101399.81;5024344;28;46787;-68
2022/09/04 07:47:21;;;;;;;;;6.67;6.00;;;;;21.07;95.63;101407.00;5034298;28;45449;-70
2022/09/04 07:50:08;;;;;;;;;7.67;7.67;;;;;21.11;96.29;101397.94;5033808;28;45741;-70
2022/09/04 07:52:52;;;;;;;;;6.67;6.00;;;;;21.18;94.84;101399.56;5048762;28;45509;-70
2022/09/04 07:55:46;;;;;;;;;11.00;7.67;;;;;21.23;94.16;101403.03;5045927;28;46580;-69
2022/09/04 07:58:20;;;;;;;;;6.67;6.00;;;;;21.26;93.84;101404.75;5037951;28;45569;-69
2022/09/04 08:01:00;;;;;;;;;6.00;6.00;;;;;21.23;93.05;101400.34;5052733;28;45477;-70
2022/09/04 08:03:42;;;;;;;;;7.00;7.00;;;;;21.24;92.80;101414.66;5053572;28;45642;-69
2022/09/04 08:06:26;;;;;;;;;6.67;6.67;;;;;21.26;93.66;101424.44;5053473;28;47673;-69
2022/09/04 08:09:22;;;;;;;;;7.00;7.00;;;;;21.28;92.90;101422.59;5051573;28;45732;-69
2022/09/04 08:11:57;;;;;;;;;5.00;5.00;;;;;21.31;93.32;101425.25;5054047;28;45507;-69
2022/09/04 08:14:26;;;;;;;;;7.00;7.00;;;;;21.35;92.74;101426.94;5056598;28;45375;-69
2022/09/04 08:16:55;;;;;;;;;7.67;7.67;;;;;21.39;92.33;101414.31;5051712;28;46386;-69
2022/09/04 08:19:51;;;;;;;;;7.67;6.67;;;;;21.42;92.64;101430.38;5054987;28;45521;-69
2022/09/04 08:22:30;;;;;;;;;7.00;5.67;;;;;21.49;92.85;101426.59;5053639;28;45510;-69
2022/09/04 08:25:09;;;;;;;;;9.67;8.00;;;;;21.53;91.92;101430.09;5033073;28;45498;-69
2022/09/04 08:28:00;;;;;;;;;7.33;6.00;;;;;21.58;91.40;101428.19;5033732;28;47344;-70
2022/09/04 08:30:32;;;;;;;;;8.00;6.67;;;;;21.62;92.66;101432.53;5045769;28;45443;-69
2022/09/04 08:33:28;;;;;;;;;7.33;6.00;;;;;21.65;90.19;101430.66;5027416;28;45491;-68
2022/09/04 08:35:56;;;;;;;;;6.67;5.00;;;;;21.68;90.97;101427.91;5053676;28;45442;-69
2022/09/04 08:38:54;;;;;;;;;8.33;6.00;;;;;21.74;90.69;101426.00;5048765;28;46637;-68
2022/09/04 08:41:47;;;;;;;;;6.00;6.00;;;;;21.78;87.60;101436.59;5055530;28;45470;-68
2022/09/04 08:44:40;;;;;;;;;10.33;6.33;;;;;21.82;87.22;101430.22;5043257;28;45898;-69
2022/09/04 08:47:10;;;;;;;;;4.00;4.00;;;;;21.86;88.03;101434.63;5053755;28;45518;-69
2022/09/04 08:50:09;;;;;;;;;5.33;5.33;;;;;21.94;87.07;101439.78;5037213;28;46601;-72
2022/09/04 08:52:51;;;;;;;;;5.00;3.67;;;;;22.01;86.61;101440.53;5048195;28;45498;-69
2022/09/04 08:55:45;;;;;;;;;4.00;4.00;;;;;22.08;85.73;101443.00;5052963;28;45399;-71
2022/09/04 08:58:21;;;;;;;;;3.00;3.00;;;;;22.14;86.12;101440.16;5044821;28;47248;-73
2022/09/04 09:00:54;;;;;;;;;4.00;4.00;;;;;22.20;85.87;101445.38;5025815;28;46542;-73
2022/09/04 09:03:33;;;;;;;;;6.67;4.00;;;;;22.27;84.73;101440.72;5050688;28;45352;-74
2022/09/04 09:06:16;;;;;;;;;5.00;4.00;;;;;22.31;82.93;101445.06;5057442;28;45435;-73
2022/09/04 09:08:44;;;;;;;;;3.67;3.33;;;;;22.37;82.74;101438.63;5053433;28;45543;-69
2022/09/04 09:11:28;;;;;;;;;3.33;3.33;;;;;22.43;82.20;101441.19;5051643;28;46309;-71
2022/09/04 09:14:32;;;;;;;;;3.00;3.00;;;;;22.49;80.87;101439.19;5054021;28;45448;-71
2022/09/04 09:17:11;;;;;;;;;4.00;4.00;;;;;22.57;80.71;101438.94;5050980;28;45435;-72
2022/09/04 09:19:46;;;;;;;;;8.00;5.00;;;;;22.60;80.16;101432.63;5051821;28;45955;-77
2022/09/04 09:22:27;;;;;;;;;3.33;3.33;;;;;;;;5031642;28;47590;-71
2022/09/04 09:25:08;;;;;;;;;7.00;4.67;;;;;22.77;79.12;101446.44;5047033;28;45652;-71
2022/09/04 09:27:52;;;;;;;;;6.00;6.00;;;;;22.84;79.20;101444.44;5052987;28;45523;-72
2022/09/04 09:30:21;;;;;;;;;4.00;4.00;;;;;22.90;80.49;101438.91;5054274;28;45631;-72
2022/09/04 09:33:19;;;;;;;;;4.00;4.00;;;;;22.95;79.48;101427.06;5034808;28;46968;-73
2022/09/04 09:36:18;;;;;;;;;7.00;5.00;;;;;23.08;77.29;101437.47;5053097;28;45623;-72
2022/09/04 09:38:59;;;;;;;;;4.00;4.00;;;;;23.15;77.14;101439.91;5049712;28;45328;-71
2022/09/04 09:42:14;;;;;;;;;5.67;3.67;;;;;23.22;79.18;101435.22;5053612;28;45661;-72
2022/09/04 09:45:17;;;;;;;;;5.33;4.33;;;;;23.30;79.80;101432.28;4991177;28;46742;-70
2022/09/04 09:48:20;;;;;;;;;4.00;4.00;;;;;23.38;78.03;101441.00;5051534;28;45384;-71
2022/09/04 09:51:00;;;;;;;;;5.67;4.33;;;;;23.45;77.20;101435.38;5053847;28;45602;-72
2022/09/04 09:53:49;;;;;;;;;6.00;4.00;;;;;23.51;77.39;101439.69;5049928;28;45319;-71
2022/09/04 09:56:28;;;;;;;;;3.00;3.00;;;;;23.55;76.76;101433.25;5055974;28;46635;-71
2022/09/04 09:58:59;;;;;;;;;4.00;4.00;;;;;23.62;78.63;101431.22;5033039;28;45551;-71
2022/09/04 10:01:24;;;;;;;;;4.67;4.00;;;;;23.69;79.67;101424.72;5028988;28;45303;-70
2022/09/04 10:03:58;;;;;;;;;3.00;3.00;;;;;23.77;80.24;101423.53;5052354;28;45803;-71
2022/09/04 10:06:40;;;;;;;;;4.00;4.00;;;;;23.85;80.41;101431.34;5053628;28;46930;-71
2022/09/04 10:09:39;;;;;;;;;5.00;4.00;;;;;23.91;77.99;101427.56;5040109;28;45485;-71
2022/09/04 10:12:35;;;;;;;;;4.00;4.00;;;;;23.96;74.94;101422.88;5057823;28;45360;-70
2022/09/04 10:15:25;;;;;;;;;6.00;5.00;;;;;23.98;75.35;101421.03;5009299;22;47158;-73
2022/09/04 10:18:31;;;;;;;;;4.00;4.00;;;;;24.07;74.67;101420.69;5055338;28;46079;-71
2022/09/04 10:21:41;;;;;;;;;7.33;5.00;;;;;24.12;77.91;101420.53;5056506;28;45625;-70
2022/09/04 10:24:42;;;;;;;;;4.00;4.00;;;;;24.17;77.15;101418.53;5033195;28;45523;-70
2022/09/04 10:27:25;;;;;;;;;5.00;3.00;;;;;24.20;76.41;101410.34;5009808;28;45522;-71
2022/09/04 10:30:24;;;;;;;;;7.00;3.33;;;;;24.20;76.43;101416.63;5057947;28;46273;-71
2022/09/04 10:33:17;;;;;;;;;3.67;3.67;;;;;24.27;76.87;101411.88;5053779;28;45491;-72
2022/09/04 10:35:52;;;;;;;;;3.00;3.00;;;;;24.29;76.34;101412.72;5058294;28;45434;-71
2022/09/04 10:38:26;;;;;;;;;5.00;4.00;;;;;24.38;75.37;101409.69;5022395;28;45470;-70
2022/09/04 10:41:27;;;;;;;;;17.00;15.00;;;;;24.43;75.66;101402.31;5038865;28;47272;-75
2022/09/04 10:44:15;;;;;;;;;9.33;8.00;;;;;24.49;75.39;101399.38;5052995;28;45459;-74
2022/09/04 10:47:17;;;;;;;;;18.33;15.33;;;;;24.56;75.07;101400.03;5031325;28;45402;-72
2022/09/04 10:50:15;;;;;;;;;5.00;4.00;;;;;24.64;76.01;101397.91;5034659;28;46616;-72
2022/09/04 10:53:05;;;;;;;;;12.67;11.33;;;;;24.70;75.92;101394.97;5026129;28;46130;-72
2022/09/04 10:55:47;;;;;;;;;5.00;5.00;;;;;24.77;74.55;101390.22;5055057;28;45292;-71
2022/09/04 10:58:28;;;;;;;;;6.00;5.33;;;;;24.82;74.34;101389.09;5022920;28;45295;-74
2022/09/04 11:01:28;;;;;;;;;4.33;4.33;;;;;24.87;72.65;101393.41;5058133;28;45283;-73
2022/09/04 11:04:15;;;;;;;;;7.00;7.00;;;;;24.92;74.42;101391.41;5051378;28;46810;-76
2022/09/04 11:07:09;;;;;;;;;4.33;4.33;;;;;25.01;75.07;101391.06;5056584;28;45506;-72
2022/09/04 11:10:03;;;;;;;;;6.00;4.67;;;;;25.08;74.94;101384.50;5032263;28;45571;-72
2022/09/04 11:12:40;;;;;;;;;4.00;4.00;;;;;25.13;74.76;101385.19;5057681;28;45403;-72
2022/09/04 11:15:24;;;;;;;;;6.67;6.00;;;;;25.22;73.96;101383.94;5052971;28;46636;-72
2022/09/04 11:18:18;;;;;;;;;5.00;5.00;;;;;25.27;74.77;101384.63;5057464;28;45266;-72
2022/09/04 11:21:06;;;;;;;;;9.00;7.00;;;;;25.34;72.37;101380.72;5048995;28;45337;-73
2022/09/04 11:24:09;;;;;;;;;6.00;6.00;;;;;25.41;72.69;101382.25;5057622;28;45455;-72
2022/09/04 11:27:08;;;;;;;;;7.00;6.00;;;;;25.46;72.22;101376.63;5055536;28;45690;-71
2022/09/04 11:29:46;;;;;;;;;6.33;5.33;;;;;25.53;72.39;101376.31;5055873;28;45464;-73
2022/09/04 11:32:36;;;;;;;;;6.00;6.00;;;;;25.58;71.27;101377.00;5055730;28;45359;-71
2022/09/04 11:35:18;;;;;;;;;10.33;10.33;;;;;25.67;70.55;101377.53;5056280;28;45347;-73
2022/09/04 11:38:16;;;;;;;;;6.67;5.00;;;;;25.75;70.32;101381.69;5038037;28;46287;-72
2022/09/04 11:41:02;;;;;;;;;5.00;5.00;;;;;25.84;70.61;101384.00;5034523;28;45511;-71
2022/09/04 11:43:55;;;;;;;;;5.00;5.00;;;;;25.90;67.56;101373.88;5058097;28;45340;-71
2022/09/04 11:46:53;;;;;;;;;6.00;4.00;;;;;25.99;69.64;101370.72;5057834;28;45486;-72
2022/09/04 11:49:38;;;;;;;;;5.67;5.67;;;;;26.05;68.67;101378.59;5057451;28;46702;-72
2022/09/04 11:52:11;;;;;;;;;6.00;5.67;;;;;26.12;70.94;101380.06;5031946;28;45470;-72
2022/09/04 11:55:01;;;;;;;;;5.67;5.67;;;;;26.16;69.48;101372.72;5039597;28;45415;-72
2022/09/04 11:57:34;;;;;;;;;5.33;5.00;;;;;26.19;70.54;101370.72;5050898;28;45215;-73
2022/09/04 12:00:04;;;;;;;;;7.00;5.33;;;;;26.25;70.08;101375.84;5061390;28;46498;-72
2022/09/04 12:02:35;;;;;;;;;5.00;5.00;;;;;26.29;68.59;101371.19;5051304;28;45488;-74
2022/09/04 12:05:38;;;;;;;;;8.00;5.00;;;;;26.36;68.75;101373.53;5056492;28;45228;-72
2022/09/04 12:08:28;;;;;;;;;5.33;5.33;;;;;26.43;69.19;101365.19;5028744;28;45312;-71
2022/09/04 12:11:20;;;;;;;;;5.00;5.00;;;;;26.50;69.41;101372.94;5055342;28;45453;-71
2022/09/04 12:14:07;;;;;;;;;6.00;4.00;;;;;26.59;68.82;101367.09;5027055;28;45277;-72
2022/09/04 12:16:57;;;;;;;;;5.33;5.33;;;;;26.70;67.58;101363.00;5055585;28;45585;-71
2022/09/04 12:19:50;;;;;;;;;6.00;6.00;;;;;26.81;69.10;101364.22;5054775;28;46217;-71
2022/09/04 12:22:39;;;;;;;;;8.00;6.33;;;;;26.93;67.57;101359.16;5048262;28;47458;-71
2022/09/04 12:25:19;;;;;;;;;6.33;5.67;;;;;27.03;66.70;101349.63;5054471;28;45205;-71
2022/09/04 12:28:09;;;;;;;;;5.00;5.00;;;;;27.15;67.93;101349.03;5056078;28;45329;-72
2022/09/04 12:31:06;;;;;;;;;6.00;4.33;;;;;27.25;67.54;101349.47;5055638;28;45419;-71
2022/09/04 12:33:52;;;;;;;;;8.00;7.00;;;;;27.39;67.13;101344.22;5037164;28;46449;-72
2022/09/04 12:36:42;;;;;;;;;5.00;5.00;;;;;27.53;67.57;101349.81;5056181;28;45430;-71
2022/09/04 12:39:19;;;;;;;;;7.00;5.33;;;;;27.68;63.99;101359.00;5056224;28;45474;-71